createdAt,value
2022-10-23T00:01:30.499Z,62.30
2022-10-23T00:04:06.842Z,62.30
2022-10-23T00:06:34.897Z,62.30
2022-10-23T00:09:02.917Z,62.30
2022-10-23T00:11:31.285Z,62.30
2022-10-23T00:14:01.050Z,62.30
2022-10-23T00:16:28.718Z,62.30
2022-10-23T00:18:55.506Z,62.30
2022-10-23T00:21:22.309Z,62.30
2022-10-23T00:23:49.302Z,62.40
2022-10-23T00:26:16.653Z,62.40
2022-10-23T00:28:49.399Z,62.50
2022-10-23T00:31:16.625Z,62.60
2022-10-23T00:33:44.046Z,62.60
2022-10-23T00:36:13.330Z,62.40
2022-10-23T00:38:40.375Z,62.40
2022-10-23T00:41:08.897Z,62.50
2022-10-23T00:43:54.064Z,62.50
2022-10-23T00:46:20.925Z,62.50
2022-10-23T00:48:48.223Z,62.50
2022-10-23T00:51:15.014Z,62.60
2022-10-23T00:53:43.374Z,62.60
2022-10-23T00:56:11.355Z,62.80
2022-10-23T00:58:38.334Z,62.70
2022-10-23T01:01:20.452Z,62.70
2022-10-23T01:03:48.810Z,63.10
2022-10-23T01:06:27.865Z,62.60
2022-10-23T01:09:13.530Z,62.70
2022-10-23T01:11:52.837Z,62.80
2022-10-23T01:14:42.919Z,62.80
2022-10-23T01:17:40.848Z,62.90
2022-10-23T01:20:39.670Z,63.00
2022-10-23T01:23:10.137Z,62.80
2022-10-23T01:26:09.896Z,62.80
2022-10-23T01:28:56.012Z,63.00
2022-10-23T01:31:46.723Z,63.00
2022-10-23T01:34:18.274Z,63.00
2022-10-23T01:36:48.249Z,63.00
2022-10-23T01:39:21.894Z,63.10
2022-10-23T01:41:59.835Z,63.00
2022-10-23T01:44:38.049Z,63.00
2022-10-23T01:47:08.591Z,63.00
2022-10-23T01:49:47.560Z,63.00
2022-10-23T01:52:16.473Z,63.00
2022-10-23T01:54:47.301Z,63.00
2022-10-23T01:57:17.892Z,63.00
2022-10-23T01:59:53.356Z,63.10
2022-10-23T02:02:22.664Z,63.20
2022-10-23T02:05:15.305Z,63.20
2022-10-23T02:07:42.215Z,63.40
2022-10-23T02:10:10.893Z,63.30
2022-10-23T02:12:59.677Z,63.30
2022-10-23T02:15:58.551Z,63.40
2022-10-23T02:18:45.478Z,63.40
2022-10-23T02:21:13.893Z,63.20
2022-10-23T02:23:55.383Z,63.30
2022-10-23T02:26:40.574Z,63.20
2022-10-23T02:29:13.009Z,63.30
2022-10-23T02:31:43.275Z,63.40
2022-10-23T02:34:10.101Z,64.30
2022-10-23T02:36:37.384Z,63.40
2022-10-23T02:39:05.089Z,64.30
2022-10-23T02:41:59.858Z,63.50
2022-10-23T02:44:54.997Z,63.60
2022-10-23T02:47:46.625Z,63.50
2022-10-23T02:50:51.693Z,63.40
2022-10-23T02:53:37.473Z,63.30
2022-10-23T02:56:14.650Z,63.30
2022-10-23T02:58:59.303Z,63.20
2022-10-23T03:01:53.174Z,63.30
2022-10-23T03:04:25.881Z,63.30
2022-10-23T03:06:53.061Z,63.30
2022-10-23T03:09:19.922Z,63.40
2022-10-23T03:11:47.090Z,63.40
2022-10-23T03:14:14.214Z,63.40
2022-10-23T03:16:40.994Z,64.30
2022-10-23T03:19:09.677Z,63.50
2022-10-23T03:21:36.873Z,63.40
2022-10-23T03:24:07.867Z,63.50
2022-10-23T03:26:40.094Z,63.30
2022-10-23T03:29:06.858Z,63.40
2022-10-23T03:31:40.088Z,63.80
2022-10-23T03:34:11.039Z,63.50
2022-10-23T03:36:40.479Z,63.40
2022-10-23T03:39:08.441Z,63.50
2022-10-23T03:41:35.158Z,63.50
2022-10-23T03:44:01.993Z,63.40
2022-10-23T03:46:28.966Z,63.60
2022-10-23T03:48:58.167Z,63.60
2022-10-23T03:51:25.058Z,63.50
2022-10-23T03:53:51.784Z,63.50
2022-10-23T03:56:18.592Z,63.60
2022-10-23T03:58:45.405Z,63.60
2022-10-23T04:01:13.816Z,63.50
2022-10-23T04:03:40.639Z,63.60
2022-10-23T04:06:07.896Z,63.60
2022-10-23T04:08:34.796Z,63.50
2022-10-23T04:11:06.033Z,63.40
2022-10-23T04:13:39.795Z,63.30
2022-10-23T04:16:06.696Z,63.30
2022-10-23T04:18:33.436Z,63.40
2022-10-23T04:21:00.156Z,63.20
2022-10-23T04:23:26.873Z,63.80
2022-10-23T04:25:57.937Z,63.20
2022-10-23T04:28:25.973Z,63.20
2022-10-23T04:30:52.839Z,63.20
2022-10-23T04:33:19.917Z,63.20
2022-10-23T04:35:49.718Z,63.20
2022-10-23T04:38:16.629Z,63.10
2022-10-23T04:40:43.928Z,63.20
2022-10-23T04:43:10.748Z,63.20
2022-10-23T04:45:39.616Z,63.10
2022-10-23T04:48:06.577Z,63.00
2022-10-23T04:51:00.214Z,63.10
2022-10-23T04:53:51.538Z,63.10
2022-10-23T04:56:42.306Z,63.20
2022-10-23T04:59:13.998Z,63.20
2022-10-23T05:01:41.617Z,63.30
2022-10-23T05:04:09.675Z,63.30
2022-10-23T05:06:56.454Z,63.40
2022-10-23T05:09:55.497Z,63.50
2022-10-23T05:12:39.338Z,63.40
2022-10-23T05:15:06.730Z,63.40
2022-10-23T05:17:37.663Z,63.50
2022-10-23T05:20:09.569Z,63.50
2022-10-23T05:22:40.875Z,63.40
2022-10-23T05:25:11.935Z,63.40
2022-10-23T05:27:40.958Z,63.40
2022-10-23T05:30:11.996Z,63.50
2022-10-23T05:32:39.156Z,63.60
2022-10-23T05:35:13.973Z,63.50
2022-10-23T05:37:42.858Z,63.50
2022-10-23T05:40:14.186Z,63.40
2022-10-23T05:42:43.014Z,63.40
2022-10-23T05:45:12.583Z,63.50
2022-10-23T05:48:10.883Z,63.50
2022-10-23T05:51:09.781Z,63.60
2022-10-23T05:53:53.078Z,63.80
2022-10-23T05:56:45.770Z,63.80
2022-10-23T05:59:23.011Z,63.70
2022-10-23T06:01:50.413Z,63.70
2022-10-23T06:04:37.512Z,63.70
2022-10-23T06:07:04.574Z,63.70
2022-10-23T06:09:31.676Z,63.70
2022-10-23T06:11:58.801Z,63.70
2022-10-23T06:14:25.540Z,63.80
2022-10-23T06:16:53.673Z,63.80
2022-10-23T06:19:20.997Z,63.90
2022-10-23T06:21:52.278Z,63.90
2022-10-23T06:24:21.340Z,64.00
2022-10-23T06:26:52.843Z,64.10
2022-10-23T06:29:38.269Z,64.00
2022-10-23T06:32:05.185Z,64.00
2022-10-23T06:34:32.273Z,64.10
2022-10-23T06:36:59.039Z,64.10
2022-10-23T06:39:52.033Z,64.10
2022-10-23T06:42:22.872Z,63.90
2022-10-23T06:44:56.419Z,63.90
2022-10-23T06:47:55.763Z,63.90
2022-10-23T06:50:31.066Z,64.00
2022-10-23T06:52:59.837Z,64.10
2022-10-23T06:55:27.171Z,64.10
2022-10-23T06:57:53.939Z,64.10
2022-10-23T07:00:21.573Z,64.20
2022-10-23T07:02:51.153Z,64.20
2022-10-23T07:05:19.671Z,64.30
2022-10-23T07:07:46.525Z,64.20
2022-10-23T07:10:18.505Z,64.20
2022-10-23T07:12:48.873Z,63.50
2022-10-23T07:15:36.926Z,64.20
2022-10-23T07:18:05.618Z,64.30
2022-10-23T07:20:58.579Z,64.30
2022-10-23T07:23:25.501Z,64.10
2022-10-23T07:25:52.882Z,64.20
2022-10-23T07:28:22.834Z,64.20
2022-10-23T07:30:57.726Z,64.00
2022-10-23T07:33:25.470Z,64.10
2022-10-23T07:36:09.726Z,63.90
2022-10-23T07:38:36.858Z,63.80
2022-10-23T07:41:06.806Z,63.80
2022-10-23T07:43:37.516Z,63.80
2022-10-23T07:46:04.426Z,63.70
2022-10-23T07:48:36.369Z,63.50
2022-10-23T07:51:08.626Z,63.40
2022-10-23T07:53:40.617Z,63.30
2022-10-23T07:56:39.726Z,63.30
2022-10-23T07:59:16.793Z,63.30
2022-10-23T08:01:52.568Z,63.10
2022-10-23T08:04:23.163Z,63.10
2022-10-23T08:06:56.352Z,63.00
2022-10-23T08:09:25.475Z,63.10
2022-10-23T08:11:52.278Z,63.00
2022-10-23T08:14:21.004Z,63.00
2022-10-23T08:16:48.156Z,63.00
2022-10-23T08:19:17.912Z,63.00
2022-10-23T08:21:46.225Z,62.90
2022-10-23T08:24:14.137Z,62.90
2022-10-23T08:26:43.603Z,62.80
2022-10-23T08:29:11.781Z,62.90
2022-10-23T08:31:38.714Z,62.90
2022-10-23T08:34:22.394Z,62.90
2022-10-23T08:36:50.683Z,63.00
2022-10-23T08:39:17.961Z,62.90
2022-10-23T08:42:05.399Z,63.00
2022-10-23T08:44:50.209Z,63.10
2022-10-23T08:47:38.902Z,63.00
2022-10-23T08:50:32.689Z,63.00
2022-10-23T08:53:18.726Z,62.90
2022-10-23T08:55:53.476Z,62.90
2022-10-23T08:58:31.973Z,62.90
2022-10-23T09:00:58.855Z,62.90
2022-10-23T09:03:27.515Z,62.90
2022-10-23T09:06:04.318Z,62.90
2022-10-23T09:09:03.477Z,62.90
2022-10-23T09:11:49.128Z,62.80
2022-10-23T09:14:18.656Z,62.90
2022-10-23T09:17:34.693Z,62.80
2022-10-23T09:20:23.686Z,62.70
2022-10-23T09:22:58.671Z,62.70
2022-10-23T09:25:29.473Z,62.50
2022-10-23T09:28:00.166Z,62.50
2022-10-23T09:30:37.398Z,62.60
2022-10-23T09:33:24.327Z,62.60
2022-10-23T09:35:58.734Z,62.70
2022-10-23T09:38:47.051Z,62.60
2022-10-23T09:41:24.786Z,62.60
2022-10-23T09:44:21.374Z,62.60
2022-10-23T09:46:52.197Z,62.60
2022-10-23T09:49:24.847Z,62.60
2022-10-23T09:52:19.899Z,62.60
2022-10-23T09:54:48.149Z,62.60
2022-10-23T09:57:17.750Z,62.60
2022-10-23T09:59:44.582Z,62.60
2022-10-23T10:02:41.567Z,62.60
2022-10-23T10:05:29.979Z,62.60
2022-10-23T10:08:13.975Z,62.50
2022-10-23T10:11:01.010Z,62.60
2022-10-23T10:13:33.828Z,62.60
2022-10-23T10:16:11.175Z,62.50
2022-10-23T10:18:47.555Z,62.50
2022-10-23T10:21:25.113Z,62.50
2022-10-23T10:24:22.481Z,62.30
2022-10-23T10:27:03.408Z,62.30
2022-10-23T10:29:44.128Z,62.30
2022-10-23T10:32:21.615Z,62.30
2022-10-23T10:35:04.345Z,62.30
2022-10-23T10:37:54.973Z,62.20
2022-10-23T10:40:31.572Z,62.10
2022-10-23T10:43:27.940Z,62.10
2022-10-23T10:46:04.243Z,62.00
2022-10-23T10:48:50.044Z,62.00
2022-10-23T10:51:52.677Z,62.10
2022-10-23T10:54:22.237Z,62.00
2022-10-23T10:56:49.059Z,62.00
2022-10-23T10:59:51.212Z,62.00
2022-10-23T11:02:32.593Z,62.00
2022-10-23T11:05:18.001Z,62.00
2022-10-23T11:08:06.577Z,61.90
2022-10-23T11:10:36.382Z,61.80
2022-10-23T11:13:04.313Z,61.70
2022-10-23T11:15:42.897Z,61.70
2022-10-23T11:18:28.351Z,61.60
2022-10-23T11:20:58.145Z,61.60
2022-10-23T11:23:52.650Z,61.50
2022-10-23T11:26:38.096Z,61.50
2022-10-23T11:29:33.157Z,61.50
2022-10-23T11:32:29.683Z,61.60
2022-10-23T11:34:59.211Z,61.60
2022-10-23T11:37:26.849Z,61.50
2022-10-23T11:40:13.777Z,61.40
2022-10-23T11:42:40.713Z,61.50
2022-10-23T11:45:26.760Z,61.40
2022-10-23T11:48:16.829Z,61.40
2022-10-23T11:50:46.570Z,61.30
2022-10-23T11:53:39.297Z,61.10
2022-10-23T11:56:24.043Z,61.00
2022-10-23T11:58:53.244Z,60.80
2022-10-23T12:01:27.540Z,60.70
2022-10-23T12:04:14.788Z,60.60
2022-10-23T12:07:00.452Z,60.40
2022-10-23T12:09:40.749Z,60.10
2022-10-23T12:12:07.415Z,59.90
2022-10-23T12:14:44.359Z,59.80
2022-10-23T12:17:23.155Z,59.50
2022-10-23T12:19:52.936Z,59.40
2022-10-23T12:22:22.245Z,59.20
2022-10-23T12:25:19.742Z,59.00
2022-10-23T12:28:14.537Z,58.80
2022-10-23T12:33:21.282Z,58.70
2022-10-23T12:36:09.151Z,58.70
2022-10-23T12:38:44.716Z,58.50
2022-10-23T12:41:15.558Z,58.30
2022-10-23T12:43:51.060Z,58.10
2022-10-23T12:46:34.404Z,58.10
2022-10-23T12:49:04.010Z,58.10
2022-10-23T12:51:34.171Z,58.20
2022-10-23T12:54:02.258Z,58.10
2022-10-23T12:56:35.512Z,58.00
2022-10-23T12:59:02.880Z,57.80
2022-10-23T13:01:33.458Z,57.80
2022-10-23T13:04:10.974Z,57.80
2022-10-23T13:06:39.387Z,57.80
2022-10-23T13:09:15.283Z,57.90
2022-10-23T13:12:16.035Z,57.80
2022-10-23T13:15:00.003Z,57.80
2022-10-23T13:17:42.250Z,57.80
2022-10-23T13:20:22.277Z,57.70
2022-10-23T13:23:11.385Z,57.70
2022-10-23T13:25:39.257Z,57.70
2022-10-23T13:28:34.934Z,57.60
2022-10-23T13:31:01.641Z,57.70
2022-10-23T13:33:41.832Z,57.70
2022-10-23T13:36:14.310Z,57.70
2022-10-23T13:38:43.627Z,57.70
2022-10-23T13:41:17.238Z,57.70
2022-10-23T13:43:45.499Z,57.70
2022-10-23T13:46:21.801Z,57.70
2022-10-23T13:48:48.826Z,57.50
2022-10-23T13:51:22.662Z,57.50
2022-10-23T13:53:50.781Z,57.50
2022-10-23T13:56:19.705Z,57.40
2022-10-23T13:58:47.157Z,57.40
2022-10-23T14:01:30.767Z,57.40
2022-10-23T14:03:58.639Z,57.40
2022-10-23T14:06:25.558Z,57.30
2022-10-23T14:08:52.613Z,57.20
2022-10-23T14:11:20.378Z,57.20
2022-10-23T14:13:47.746Z,57.10
2022-10-23T14:16:17.143Z,57.10
2022-10-23T14:18:44.623Z,57.20
2022-10-23T14:21:13.447Z,57.10
2022-10-23T14:23:40.367Z,57.10
2022-10-23T14:26:18.335Z,57.10
2022-10-23T14:28:45.555Z,57.10
2022-10-23T14:31:15.550Z,57.20
2022-10-23T14:33:43.622Z,57.20
2022-10-23T14:36:10.961Z,57.20
2022-10-23T14:38:37.773Z,57.20
2022-10-23T14:41:13.896Z,57.10
2022-10-23T14:43:40.774Z,57.00
2022-10-23T14:46:18.223Z,57.00
2022-10-23T14:48:47.047Z,56.90
2022-10-23T14:51:22.230Z,56.90
2022-10-23T14:53:49.599Z,56.90
2022-10-23T14:56:16.737Z,57.00
2022-10-23T14:58:43.528Z,57.10
2022-10-23T15:01:10.761Z,57.20
2022-10-23T15:03:37.778Z,57.30
2022-10-23T15:06:06.641Z,57.40
2022-10-23T15:08:33.451Z,58.40
2022-10-23T15:11:01.588Z,57.50
2022-10-23T15:13:28.860Z,57.50
2022-10-23T15:16:04.710Z,57.60
2022-10-23T15:18:31.889Z,57.60
2022-10-23T15:20:58.916Z,57.60
2022-10-23T15:23:25.684Z,57.70
2022-10-23T15:25:59.481Z,57.70
2022-10-23T15:28:27.601Z,57.80
2022-10-23T15:30:54.797Z,57.90
2022-10-23T15:33:22.458Z,58.00
2022-10-23T15:35:49.517Z,58.00
2022-10-23T15:38:16.809Z,58.10
2022-10-23T15:40:45.658Z,58.20
2022-10-23T15:43:13.502Z,58.30
2022-10-23T15:45:41.370Z,58.40
2022-10-23T15:48:09.232Z,58.50
2022-10-23T15:50:36.857Z,58.60
2022-10-23T15:53:04.154Z,58.70
2022-10-23T15:55:30.992Z,58.70
2022-10-23T15:58:01.913Z,58.80
2022-10-23T16:00:28.716Z,58.90
2022-10-23T16:02:55.479Z,59.00
2022-10-23T16:05:22.208Z,59.10
2022-10-23T16:07:48.883Z,59.10
2022-10-23T16:10:15.993Z,59.20
2022-10-23T16:12:42.973Z,59.30
2022-10-23T16:15:10.208Z,59.40
2022-10-23T16:17:36.924Z,59.40
2022-10-23T16:20:04.067Z,59.50
2022-10-23T16:22:30.809Z,59.60
2022-10-23T16:24:57.564Z,59.70
2022-10-23T16:27:24.529Z,59.70
2022-10-23T16:29:51.269Z,59.80
2022-10-23T16:32:18.394Z,59.80
2022-10-23T16:34:45.733Z,59.90
2022-10-23T16:37:12.690Z,60.00
2022-10-23T16:39:53.318Z,60.00
2022-10-23T16:42:40.456Z,60.00
2022-10-23T16:45:27.651Z,60.00
2022-10-23T16:47:54.422Z,60.10
2022-10-23T16:50:21.240Z,60.20
2022-10-23T16:52:49.109Z,60.20
2022-10-23T16:55:18.057Z,60.30
2022-10-23T16:57:44.820Z,60.30
2022-10-23T17:00:11.883Z,60.40
2022-10-23T17:02:38.700Z,60.50
2022-10-23T17:05:05.866Z,60.50
2022-10-23T17:07:32.810Z,60.50
2022-10-23T17:09:59.521Z,60.60
2022-10-23T17:12:26.301Z,60.50
2022-10-23T17:14:53.014Z,60.70
2022-10-23T17:17:19.816Z,60.70
2022-10-23T17:19:46.977Z,60.80
2022-10-23T17:22:14.500Z,61.00
2022-10-23T17:24:44.232Z,61.10
2022-10-23T17:27:13.218Z,61.20
2022-10-23T17:29:39.994Z,61.20
2022-10-23T17:32:06.837Z,61.30
2022-10-23T17:34:33.650Z,61.30
2022-10-23T17:37:00.400Z,61.40
2022-10-23T17:39:28.845Z,61.50
2022-10-23T17:41:56.393Z,61.50
2022-10-23T17:44:23.471Z,61.40
2022-10-23T17:46:54.921Z,61.50
2022-10-23T17:49:23.203Z,61.80
2022-10-23T17:51:57.722Z,62.00
2022-10-23T17:54:25.739Z,62.00
2022-10-23T17:56:52.491Z,61.90
2022-10-23T17:59:19.624Z,62.00
2022-10-23T18:01:48.124Z,62.30
2022-10-23T18:04:16.964Z,62.50
2022-10-23T18:06:48.812Z,62.50
2022-10-23T18:09:16.393Z,62.50
2022-10-23T18:11:48.020Z,62.50
2022-10-23T18:14:17.125Z,62.60
2022-10-23T18:16:45.510Z,62.60
2022-10-23T18:19:12.449Z,62.60
2022-10-23T18:21:40.116Z,62.50
2022-10-23T18:24:07.239Z,63.40
2022-10-23T18:26:35.115Z,62.50
2022-10-23T18:29:04.808Z,62.60
2022-10-23T18:31:31.709Z,62.70
2022-10-23T18:34:01.522Z,62.70
2022-10-23T18:36:33.832Z,62.80
2022-10-23T18:39:00.863Z,62.90
2022-10-23T18:41:33.630Z,62.90
2022-10-23T18:44:00.397Z,63.00
2022-10-23T18:46:27.162Z,63.00
2022-10-23T18:48:54.019Z,63.10
2022-10-23T18:51:31.018Z,63.10
2022-10-23T18:53:59.970Z,63.20
2022-10-23T18:56:27.797Z,63.30
2022-10-23T18:58:59.264Z,63.30
2022-10-23T19:01:27.513Z,63.40
2022-10-23T19:06:29.431Z,63.50
2022-10-23T19:08:56.482Z,63.60
2022-10-23T19:11:25.340Z,63.60
2022-10-23T19:13:52.091Z,63.80
2022-10-23T19:16:25.974Z,63.90
2022-10-23T19:18:59.930Z,65.00
2022-10-23T19:21:31.100Z,64.20
2022-10-23T19:24:01.827Z,64.30
2022-10-23T19:26:30.601Z,64.30
2022-10-23T19:28:58.080Z,64.30
2022-10-23T19:31:26.409Z,64.30
2022-10-23T19:33:53.515Z,64.50
2022-10-23T19:36:23.373Z,64.60
2022-10-23T19:38:50.787Z,64.80
2022-10-23T19:41:18.858Z,64.90
2022-10-23T19:43:45.610Z,65.00
2022-10-23T19:46:12.626Z,65.10
2022-10-23T19:48:44.152Z,65.20
2022-10-23T19:51:12.841Z,65.20
2022-10-23T19:53:40.823Z,65.30
2022-10-23T19:56:10.939Z,65.40
2022-10-23T19:58:38.435Z,65.40
2022-10-23T20:01:10.617Z,65.40
2022-10-23T20:03:38.731Z,65.40
2022-10-23T20:06:08.758Z,65.50
2022-10-23T20:08:35.472Z,65.60
2022-10-23T20:11:02.438Z,65.60
2022-10-23T20:13:29.202Z,65.60
2022-10-23T20:15:56.033Z,65.60
2022-10-23T20:18:22.801Z,65.60
2022-10-23T20:20:49.774Z,65.60
2022-10-23T20:23:16.500Z,65.50
2022-10-23T20:25:43.617Z,65.50
2022-10-23T20:28:12.944Z,65.40
2022-10-23T20:30:44.009Z,65.20
2022-10-23T20:33:10.785Z,65.00
2022-10-23T20:35:42.668Z,64.90
2022-10-23T20:38:09.918Z,64.60
2022-10-23T20:40:36.972Z,64.10
2022-10-23T20:43:04.231Z,64.00
2022-10-23T20:45:31.075Z,63.70
2022-10-23T20:47:57.808Z,63.40
2022-10-23T20:50:24.527Z,63.00
2022-10-23T20:52:51.802Z,62.70
2022-10-23T20:55:19.499Z,62.50
2022-10-23T20:57:46.755Z,62.40
2022-10-23T21:00:14.050Z,62.20
2022-10-23T21:02:40.927Z,62.20
2022-10-23T21:05:08.370Z,61.90
2022-10-23T21:07:35.149Z,61.90
2022-10-23T21:10:04.454Z,61.80
2022-10-23T21:12:31.229Z,61.70
2022-10-23T21:14:58.266Z,61.70
2022-10-23T21:17:25.141Z,61.70
2022-10-23T21:19:51.987Z,61.70
2022-10-23T21:22:18.806Z,61.70
2022-10-23T21:24:45.682Z,61.70
2022-10-23T21:27:12.474Z,61.80
2022-10-23T21:29:39.202Z,61.90
2022-10-23T21:32:05.968Z,62.10
2022-10-23T21:34:32.754Z,61.80
2022-10-23T21:37:12.313Z,61.80
2022-10-23T21:39:40.777Z,61.90
2022-10-23T21:42:08.020Z,62.00
2022-10-23T21:44:35.173Z,62.90
2022-10-23T21:47:01.942Z,62.00
2022-10-23T21:49:28.765Z,62.10
2022-10-23T21:51:55.484Z,62.10
2022-10-23T21:54:22.245Z,62.10
2022-10-23T21:56:53.508Z,62.20
2022-10-23T21:59:22.835Z,62.20
2022-10-23T22:01:49.704Z,62.30
2022-10-23T22:04:18.629Z,62.50
2022-10-23T22:06:47.373Z,62.50
2022-10-23T22:09:17.328Z,62.60
2022-10-23T22:11:44.102Z,62.60
2022-10-23T22:14:10.926Z,62.50
2022-10-23T22:16:37.658Z,62.60
2022-10-23T22:19:04.890Z,62.70
2022-10-23T22:21:32.016Z,62.80
2022-10-23T22:24:00.597Z,62.90
2022-10-23T22:26:30.254Z,63.00
2022-10-23T22:28:59.772Z,63.10
2022-10-23T22:31:30.784Z,63.20
2022-10-23T22:33:58.565Z,63.40
2022-10-23T22:36:26.324Z,63.40
2022-10-23T22:38:54.504Z,63.50
2022-10-23T22:41:21.415Z,64.60
2022-10-23T22:43:48.234Z,63.80
2022-10-23T22:46:18.090Z,63.80
2022-10-23T22:48:45.837Z,63.80
2022-10-23T22:51:14.932Z,64.00
2022-10-23T22:53:42.807Z,64.10
2022-10-23T22:56:12.870Z,64.30
2022-10-23T22:58:39.849Z,64.50
2022-10-23T23:01:15.806Z,64.50
2022-10-23T23:03:43.215Z,64.70
2022-10-23T23:06:10.785Z,64.70
2022-10-23T23:08:38.782Z,64.80
2022-10-23T23:11:06.850Z,64.90
2022-10-23T23:13:34.402Z,65.00
2022-10-23T23:16:01.667Z,65.90
2022-10-23T23:18:29.271Z,65.00
2022-10-23T23:21:04.146Z,65.00
2022-10-23T23:23:31.342Z,65.10
2022-10-23T23:25:58.445Z,65.10
2022-10-23T23:28:25.279Z,65.10
2022-10-23T23:31:04.969Z,65.10
2022-10-23T23:33:31.690Z,65.10
2022-10-23T23:35:58.555Z,65.00
2022-10-23T23:38:25.315Z,64.90
2022-10-23T23:40:53.774Z,65.00
2022-10-23T23:43:20.614Z,65.00
2022-10-23T23:45:47.417Z,64.80
2022-10-23T23:48:14.169Z,64.80
2022-10-23T23:50:41.089Z,64.90
2022-10-23T23:53:07.905Z,65.90
2022-10-23T23:55:35.581Z,65.00
2022-10-23T23:58:02.369Z,65.10
